M I D A S
Marine Information and Data Acquisition System
Tripno 1067 of the Zeeleeuw from 2006-04-12 06:24:14 to 2006-04-12 11:47:52
Back to CruiseResearch ActivitiesStationsMapUnderway DataData graphs

EquipmentUnitsComment
TimeDGPSUTC
LatitudeDGPSDM.mWGS84
LongitudeDGPSDM.mWGS84
TemperatureSBE03/SBE38deg celciusITS90
ConductivitySBE21S/mITS90
SalinitySBE21 Practical Salinity Units
ChlorophylAChelsea fluorimeterg/lCalibrated in Aceton
Missing or incorrect values are displayed as -999
Sea surface data collected by the RV Zeeleeuw from 2006-04-12 06:04:08 to 2006-04-12 12:02:19
Time Latitude Longitude Temperature Conductivity Salinity ChlorophylA
2006-04-12 06:05:13 51°13.602 2°56.099 -999 0.017546 0.093198 47.827708
2006-04-12 06:06:14 51°13.601 2°56.099 -999 0.017546 0.093201 47.793999
2006-04-12 06:07:14 51°13.601 2°56.098 -999 0.017546 0.093205 47.793999
2006-04-12 06:08:13 51°13.601 2°56.098 -999 0.017546 0.093209 47.760289
2006-04-12 06:09:12 51°13.602 2°56.099 -999 0.017546 0.093213 47.72658
2006-04-12 06:10:12 51°13.603 2°56.099 -999 0.017546 0.093217 47.72658
2006-04-12 06:11:12 51°13.604 2°56.099 -999 0.017546 0.09322 47.692871
2006-04-12 06:12:11 51°13.605 2°56.1 -999 0.017443 0.092696 47.692871
2006-04-12 06:13:13 51°13.606 2°56.099 -999 0.017443 0.0927 47.659161
2006-04-12 06:14:11 51°13.607 2°56.099 -999 0.017443 0.092703 47.625452
2006-04-12 06:15:11 51°13.607 2°56.099 -999 0.017443 0.092706 47.625452
2006-04-12 06:16:11 51°13.606 2°56.099 -999 0.017443 0.092708 47.591742
2006-04-12 06:17:11 51°13.604 2°56.099 -999 0.017443 0.092711 47.558033
2006-04-12 06:18:11 51°13.605 2°56.099 -999 0.017443 0.092714 47.524324
2006-04-12 06:19:11 51°13.605 2°56.099 -999 0.017443 0.092716 47.524324
2006-04-12 06:20:11 51°13.603 2°56.099 -999 0.017443 0.092719 47.524324
2006-04-12 06:21:11 51°13.6 2°56.097 -999 0.017443 0.092723 47.490614
2006-04-12 06:22:11 51°13.6 2°56.097 -999 0.017443 0.092726 47.456905
2006-04-12 06:23:11 51°13.6 2°56.097 -999 0.017443 0.092729 47.389486
2006-04-12 06:24:11 51°13.6 2°56.097 -999 0.017443 0.092731 47.355777
2006-04-12 06:25:11 51°13.599 2°56.097 -999 0.017443 0.092734 47.322067
2006-04-12 06:26:11 51°13.605 2°56.066 -999 0.017443 0.092737 47.254648
2006-04-12 06:27:11 51°13.622 2°55.978 -999 0.017443 0.09274 47.086101
2006-04-12 06:28:11 51°13.664 2°55.871 -999 0.017341 0.092214 47.086101
2006-04-12 06:29:11 51°13.703 2°55.774 -999 0.017341 0.09222 47.086101
2006-04-12 06:30:11 51°13.716 2°55.739 -999 0.017341 0.092225 47.322067
2006-04-12 06:31:11 51°13.714 2°55.744 -999 3.299234 28.826701 47.625452
2006-04-12 06:32:11 51°13.713 2°55.735 -999 3.028074 27.896692 43.614033
2006-04-12 06:33:11 51°13.761 2°55.703 -999 2.777829 25.486213 36.332802
2006-04-12 06:34:11 51°13.855 2°55.619 -999 2.834072 26.09317 33.400084
2006-04-12 06:35:11 51°13.966 2°55.54 -999 2.99167 27.794003 30.062853
2006-04-12 06:36:11 51°14.079 2°55.459 -999 3.06811 28.676142 28.714477
2006-04-12 06:37:11 51°14.187 2°55.363 -999 3.130388 29.34222 29.557212
2006-04-12 06:38:11 51°14.289 2°55.211 -999 3.155737 29.640422 30.163982
2006-04-12 06:39:11 51°14.397 2°55.031 -999 3.186156 29.986243 31.41123
2006-04-12 06:40:11 51°14.536 2°54.88 -999 3.271839 30.929333 33.973144
2006-04-12 06:41:11 51°14.718 2°54.791 -999 3.374099 31.995206 34.310238
2006-04-12 06:42:11 51°14.91 2°54.698 -999 3.425548 32.529384 32.220255
2006-04-12 06:43:11 51°15.101 2°54.61 -999 3.432795 32.622769 33.130409
2006-04-12 06:44:11 51°15.296 2°54.584 -999 3.420786 32.517289 33.804597
2006-04-12 06:45:10 51°15.489 2°54.544 -999 3.399461 32.319353 34.141691
2006-04-12 06:46:10 51°15.686 2°54.488 -999 3.38735 32.203378 35.995708
2006-04-12 06:47:11 51°15.884 2°54.471 -999 3.38383 32.173814 33.130409
2006-04-12 06:48:11 51°16.075 2°54.461 -999 3.388488 32.228005 32.085418
2006-04-12 06:49:11 51°16.173 2°54.443 -999 3.374307 32.092648 31.107845
2006-04-12 06:50:11 51°16.204 2°54.423 -999 3.370995 32.06189 31.343811
2006-04-12 06:51:11 51°16.211 2°54.409 -999 3.380207 32.156586 32.321383
2006-04-12 06:52:11 51°16.216 2°54.394 -999 3.37969 32.150284 32.961862
2006-04-12 06:53:11 51°16.233 2°54.354 -999 3.380518 32.164065 33.669759
2006-04-12 06:54:11 51°16.236 2°54.288 -999 3.382278 32.18264 34.512494
2006-04-12 06:55:11 51°16.21 2°54.217 -999 3.384141 32.193058 34.1754
2006-04-12 06:56:11 51°16.163 2°54.16 -999 3.385176 32.199778 33.534922
2006-04-12 06:57:11 51°16.103 2°54.12 -999 3.389938 32.247508 33.029281
2006-04-12 06:58:11 51°16.048 2°54.125 -999 3.389834 32.256523 33.63605
2006-04-12 06:59:11 51°16.021 2°54.179 -999 3.387143 32.231477 33.501212
2006-04-12 07:00:11 51°16.018 2°54.222 -999 3.386625 32.231065 32.725896
2006-04-12 07:01:10 51°16.025 2°54.244 -999 3.381864 32.183314 32.051708
2006-04-12 07:02:11 51°16.038 2°54.252 -999 3.37969 32.163727 31.748324
2006-04-12 07:03:11 51°16.051 2°54.251 -999 3.374411 32.110515 31.849452
2006-04-12 07:04:10 51°16.061 2°54.249 -999 3.378344 32.152041 32.287674
2006-04-12 07:05:11 51°16.068 2°54.245 -999 3.381139 32.182392 33.029281
2006-04-12 07:06:10 51°16.064 2°54.241 -999 3.382692 32.19374 33.602341
2006-04-12 07:07:11 51°16.05 2°54.236 -999 3.382071 32.188865 33.770888
2006-04-12 07:08:10 51°16.055 2°54.238 -999 3.384866 32.205753 33.332665
2006-04-12 07:09:10 51°16.111 2°54.174 -999 3.384452 32.201382 33.669759
2006-04-12 07:10:11 51°16.19 2°54.043 -999 3.387868 32.244182 33.602341
2006-04-12 07:11:10 51°16.276 2°53.907 -999 3.392008 32.292129 31.883161
2006-04-12 07:12:11 51°16.352 2°53.791 -999 3.395528 32.326776 31.175264
2006-04-12 07:13:10 51°16.409 2°53.694 -999 3.395528 32.314953 31.040426
2006-04-12 07:14:10 51°16.463 2°53.597 -999 3.397598 32.32584 30.669623
2006-04-12 07:15:10 51°16.519 2°53.505 -999 3.408985 32.444396 29.725759
2006-04-12 07:16:10 51°16.574 2°53.412 -999 3.433935 32.702942 29.051571
2006-04-12 07:17:11 51°16.631 2°53.316 -999 3.442734 32.792572 28.950443
2006-04-12 07:18:11 51°16.69 2°53.225 -999 3.443666 32.804139 29.11899
2006-04-12 07:19:11 51°16.748 2°53.138 -999 3.447497 32.846373 29.1527
2006-04-12 07:20:11 51°16.806 2°53.052 -999 3.448946 32.864281 29.287537
2006-04-12 07:21:11 51°16.861 2°52.964 -999 3.451224 32.886664 29.557212
2006-04-12 07:22:10 51°16.917 2°52.878 -999 3.453709 32.911238 29.793178
2006-04-12 07:23:11 51°16.977 2°52.793 -999 3.454641 32.924537 29.793178
2006-04-12 07:24:10 51°17.036 2°52.713 -999 3.457229 32.954513 29.456084
2006-04-12 07:25:11 51°17.094 2°52.626 -999 3.460439 32.998832 29.051571
2006-04-12 07:26:11 51°17.155 2°52.54 -999 3.463959 33.049066 28.647059
2006-04-12 07:27:11 51°17.214 2°52.452 -999 3.463855 33.063526 28.343674
2006-04-12 07:28:11 51°17.273 2°52.361 -999 3.463545 33.090522 27.871742
2006-04-12 07:29:11 51°17.335 2°52.279 -999 3.461786 33.110855 27.568358
2006-04-12 07:30:11 51°17.4 2°52.207 -999 3.452779 33.040309 27.43352
2006-04-12 07:31:10 51°17.465 2°52.141 -999 3.445842 32.983049 27.298683
2006-04-12 07:32:10 51°17.532 2°52.076 -999 3.443151 32.962228 27.264973
2006-04-12 07:33:11 51°17.602 2°52.02 -999 3.436318 32.895652 27.264973
2006-04-12 07:34:11 51°17.668 2°51.965 -999 3.43373 32.872461 27.43352
2006-04-12 07:35:11 51°17.734 2°51.91 -999 3.427622 32.810135 27.602067
2006-04-12 07:36:11 51°17.794 2°51.86 -999 3.420271 32.73118 27.703195
2006-04-12 07:37:11 51°17.855 2°51.803 -999 3.418201 32.709187 27.804324
2006-04-12 07:38:11 51°17.917 2°51.751 -999 3.418822 32.714067 27.939161
2006-04-12 07:39:11 51°17.979 2°51.693 -999 3.415406 32.676067 28.00658
2006-04-12 07:40:11 51°18.045 2°51.63 -999 3.415923 32.681564 28.175127
2006-04-12 07:41:11 51°18.113 2°51.568 -999 3.412093 32.64432 28.444802
2006-04-12 07:42:11 51°18.171 2°51.513 -999 3.408366 32.606462 28.613349
2006-04-12 07:43:11 51°18.234 2°51.448 -999 3.40847 32.610131 28.714477
2006-04-12 07:44:11 51°18.299 2°51.379 -999 3.407124 32.59841 28.512221
2006-04-12 07:45:10 51°18.364 2°51.311 -999 3.401534 32.536494 28.309965
2006-04-12 07:46:11 51°18.43 2°51.248 -999 3.394391 32.467507 28.242546
2006-04-12 07:47:11 51°18.488 2°51.197 -999 3.387041 32.39717 28.073999
2006-04-12 07:48:11 51°18.527 2°51.14 -999 3.38259 32.347386 27.905452
2006-04-12 07:49:10 51°18.547 2°51.084 -999 3.371514 32.229053 27.838033
2006-04-12 07:50:11 51°18.542 2°51.022 -999 3.363544 32.147927 27.871742
2006-04-12 07:51:10 51°18.519 2°50.971 -999 3.358679 32.100573 27.905452
2006-04-12 07:52:11 51°18.477 2°50.923 -999 3.356816 32.07998 27.939161
2006-04-12 07:53:11 51°18.415 2°50.892 -999 3.365511 32.171314 27.939161
2006-04-12 07:54:11 51°18.358 2°50.885 -999 3.368305 32.205181 27.939161
2006-04-12 07:55:11 51°18.316 2°50.894 -999 3.373895 32.267017 27.905452
2006-04-12 07:56:11 51°18.296 2°50.919 -999 3.383419 32.36978 27.972871
2006-04-12 07:57:11 51°18.304 2°50.949 -999 3.387042 32.409945 27.939161
2006-04-12 07:58:11 51°18.329 2°50.96 -999 3.38611 32.388134 28.00658
2006-04-12 07:59:11 51°18.348 2°50.943 -999 3.384453 32.365455 28.040289
2006-04-12 08:00:11 51°18.36 2°50.918 -999 3.379485 32.3068 28.073999
2006-04-12 08:01:11 51°18.371 2°50.884 -999 3.377414 32.283996 28.073999
2006-04-12 08:02:11 51°18.377 2°50.838 -999 3.371307 32.220087 28.073999
2006-04-12 08:03:11 51°18.378 2°50.782 -999 3.364579 32.152143 28.040289
2006-04-12 08:04:11 51°18.408 2°50.705 -999 3.358368 32.088007 28.00658
2006-04-12 08:05:11 51°18.445 2°50.747 -999 3.363544 32.151306 28.175127
2006-04-12 08:06:11 51°18.453 2°50.79 -999 3.364579 32.166507 28.107708
2006-04-12 08:07:11 51°18.448 2°50.799 -999 3.351951 32.028421 28.141418
2006-04-12 08:08:11 51°18.438 2°50.798 -999 3.351951 32.02758 28.175127
2006-04-12 08:09:11 51°18.423 2°50.79 -999 3.351226 32.01906 28.175127
2006-04-12 08:10:11 51°18.405 2°50.778 -999 3.353814 32.04564 28.175127
2006-04-12 08:11:11 51°18.398 2°50.769 -999 3.35164 32.016718 28.107708
2006-04-12 08:12:11 51°18.423 2°50.706 -999 3.353089 32.029547 28.107708
2006-04-12 08:13:11 51°18.402 2°50.54 -999 3.350916 32.009883 28.208836
2006-04-12 08:14:11 51°18.382 2°50.333 -999 3.343566 31.930363 28.309965
2006-04-12 08:15:11 51°18.377 2°50.093 -999 3.341393 31.914052 28.411093
2006-04-12 08:16:11 51°18.354 2°49.844 -999 3.345533 31.967144 28.377383
2006-04-12 08:17:11 51°18.324 2°49.593 -999 3.343256 31.951414 28.242546
2006-04-12 08:18:11 51°18.295 2°49.347 -999 3.348328 32.015271 28.141418
2006-04-12 08:19:11 51°18.271 2°49.098 -999 3.363958 32.178526 28.00658
2006-04-12 08:20:11 51°18.246 2°48.856 -999 3.376897 32.313307 27.905452
2006-04-12 08:21:11 51°18.215 2°48.612 -999 3.385592 32.401373 27.770614
2006-04-12 08:22:11 51°18.187 2°48.368 -999 3.390458 32.453894 27.703195
2006-04-12 08:23:11 51°18.152 2°48.132 -999 3.396565 32.514499 27.602067
2006-04-12 08:24:11 51°18.115 2°47.897 -999 3.401431 32.568758 27.46723
2006-04-12 08:25:11 51°18.078 2°47.661 -999 3.40816 32.637695 27.298683
2006-04-12 08:26:11 51°18.039 2°47.426 -999 3.416648 32.727075 27.197554
2006-04-12 08:27:11 51°18 2°47.189 -999 3.425137 32.818213 27.062717
2006-04-12 08:28:11 51°17.96 2°46.951 -999 3.431245 32.878868 26.927879
2006-04-12 08:29:11 51°17.917 2°46.713 -999 3.435179 32.9138 26.927879
2006-04-12 08:30:11 51°17.879 2°46.468 -999 3.431556 32.870074 26.793042
2006-04-12 08:31:11 51°17.838 2°46.224 -999 3.419133 32.742302 26.793042
2006-04-12 08:32:11 51°17.795 2°45.975 -999 3.410748 32.661768 26.725623
2006-04-12 08:33:11 51°17.754 2°45.726 -999 3.39905 32.534905 26.557076
2006-04-12 08:34:11 51°17.716 2°45.48 -999 3.411679 32.664801 26.590785
2006-04-12 08:35:11 51°17.679 2°45.23 -999 3.418512 32.735699 26.354819
2006-04-12 08:36:11 51°17.647 2°44.979 -999 3.432695 32.917656 26.725623
2006-04-12 08:37:11 51°17.615 2°44.735 -999 3.446361 33.072767 27.602067
2006-04-12 08:38:11 51°17.586 2°44.489 -999 3.446258 33.088213 27.939161
2006-04-12 08:39:11 51°17.557 2°44.24 -999 3.444912 33.083448 27.602067
2006-04-12 08:40:11 51°17.529 2°43.996 -999 3.444187 33.080949 27.130136
2006-04-12 08:41:11 51°17.501 2°43.755 -999 3.448328 33.133852 27.231264
2006-04-12 08:42:11 51°17.476 2°43.518 -999 3.447707 33.134211 27.366101
2006-04-12 08:43:11 51°17.455 2°43.276 -999 3.451538 33.173347 27.602067
2006-04-12 08:44:11 51°17.435 2°43.034 -999 3.456404 33.221787 27.972871
2006-04-12 08:45:11 51°17.418 2°42.796 -999 3.459303 33.250105 28.107708
2006-04-12 08:46:11 51°17.4 2°42.557 -999 3.465722 33.311617 28.107708
2006-04-12 08:47:11 51°17.384 2°42.322 -999 3.466861 33.316753 27.972871
2006-04-12 08:48:11 51°17.362 2°42.093 -999 3.469967 33.342883 27.568358
2006-04-12 08:49:11 51°17.341 2°41.863 -999 3.471002 33.349542 27.231264
2006-04-12 08:50:11 51°17.321 2°41.617 -999 3.474108 33.380936 26.89417
2006-04-12 08:51:11 51°17.3 2°41.363 -999 3.474522 33.382719 26.557076
2006-04-12 08:52:11 51°17.272 2°41.108 -999 3.474004 33.378073 26.32111
2006-04-12 08:53:11 51°17.244 2°40.862 -999 3.471209 33.344726 26.152563
2006-04-12 08:54:11 51°17.215 2°40.602 -999 3.470691 33.339202 26.051435
2006-04-12 08:55:11 51°17.187 2°40.349 -999 3.471312 33.347587 25.984016
2006-04-12 08:56:11 51°17.161 2°40.087 -999 3.470174 33.338945 25.950306
2006-04-12 08:57:11 51°17.133 2°39.825 -999 3.480941 33.440675 25.781759
2006-04-12 08:58:11 51°17.111 2°39.565 -999 3.504238 33.692107 25.579503
2006-04-12 08:59:11 51°17.086 2°39.313 -999 3.511693 33.769111 25.545794
2006-04-12 09:00:10 51°17.053 2°39.066 -999 3.513453 33.793263 25.444665
2006-04-12 09:01:11 51°17.017 2°38.817 -999 3.514903 33.80609 25.410956
2006-04-12 09:02:10 51°16.984 2°38.577 -999 3.518631 33.836141 25.377247
2006-04-12 09:03:11 51°16.947 2°38.333 -999 3.522151 33.863969 25.343537
2006-04-12 09:04:11 51°16.915 2°38.09 -999 3.526396 33.902209 25.276118
2006-04-12 09:05:11 51°16.881 2°37.846 -999 3.53147 33.946616 25.2087
2006-04-12 09:06:11 51°16.846 2°37.598 -999 3.538615 34.014929 25.17499
2006-04-12 09:07:11 51°16.814 2°37.353 -999 3.538615 34.005093 25.107571
2006-04-12 09:08:11 51°16.802 2°37.119 -999 3.539443 34.006793 25.006443
2006-04-12 09:09:10 51°16.789 2°36.978 -999 3.546795 34.080865 24.972734
2006-04-12 09:10:11 51°16.773 2°36.899 -999 3.553009 34.154439 24.939024
2006-04-12 09:11:10 51°16.754 2°36.848 -999 3.551663 34.141844 24.871606
2006-04-12 09:12:11 51°16.725 2°36.801 -999 3.554873 34.171671 24.837896
2006-04-12 09:13:11 51°16.678 2°36.769 -999 3.555494 34.173822 24.770477
2006-04-12 09:14:11 51°16.622 2°36.76 -999 3.555805 34.17355 24.736768
2006-04-12 09:15:11 51°16.571 2°36.79 -999 3.552698 34.138556 24.736768
2006-04-12 09:16:11 51°16.54 2°36.841 -999 3.55073 34.118429 24.703059
2006-04-12 09:17:11 51°16.529 2°36.89 -999 3.549591 34.102674 24.63564
2006-04-12 09:18:11 51°16.53 2°36.92 -999 3.546485 34.065909 30.703332
2006-04-12 09:19:11 51°16.53 2°36.937 -999 3.548866 34.085976 24.669349
2006-04-12 09:20:11 51°16.532 2°36.948 -999 3.54607 34.048963 24.60193
2006-04-12 09:21:11 51°16.538 2°36.957 -999 3.548659 34.081078 24.568221
2006-04-12 09:22:11 51°16.556 2°36.957 -999 3.545345 34.042118 24.534512
2006-04-12 09:23:11 51°16.579 2°36.939 -999 3.544931 34.042166 24.568221
2006-04-12 09:24:11 51°16.608 2°36.906 -999 3.546277 34.044917 24.568221
2006-04-12 09:25:11 51°16.633 2°36.87 -999 3.550109 34.06972 24.500802
2006-04-12 09:26:11 51°16.653 2°36.837 -999 3.54752 34.041202 24.500802
2006-04-12 09:27:11 51°16.667 2°36.813 -999 3.54783 34.047197 24.534512
2006-04-12 09:28:11 51°16.663 2°36.813 -999 3.547416 34.04367 24.433383
2006-04-12 09:29:11 51°16.649 2°36.82 -999 3.549073 34.055989 24.399674
2006-04-12 09:30:11 51°16.635 2°36.826 -999 3.544931 34.013582 24.365965
2006-04-12 09:31:11 51°16.621 2°36.831 -999 3.549487 34.052368 24.264836
2006-04-12 09:32:10 51°16.609 2°36.839 -999 3.548659 34.027466 24.197418
2006-04-12 09:33:11 51°16.598 2°36.847 -999 3.550419 34.045343 24.231127
2006-04-12 09:34:10 51°16.586 2°36.855 -999 3.549073 34.031882 24.264836
2006-04-12 09:35:11 51°16.576 2°36.864 -999 3.548141 34.030867 24.264836
2006-04-12 09:36:11 51°16.566 2°36.876 -999 3.54783 34.039158 24.298546
2006-04-12 09:37:11 51°16.563 2°36.894 -999 3.548348 34.040217 24.298546
2006-04-12 09:38:11 51°16.59 2°36.979 -999 3.546484 34.017659 24.298546
2006-04-12 09:39:11 51°16.55 2°37.136 -999 3.545345 34.023357 24.332255
2006-04-12 09:40:11 51°16.42 2°37.202 -999 3.544828 34.030336 24.298546
2006-04-12 09:41:11 51°16.278 2°37.275 -999 3.547313 34.046139 24.399674
2006-04-12 09:42:11 51°16.126 2°37.343 -999 3.550626 34.063626 24.399674
2006-04-12 09:43:11 51°15.974 2°37.434 -999 3.557771 34.121068 24.365965
2006-04-12 09:44:11 51°15.824 2°37.561 -999 3.559428 34.123533 24.298546
2006-04-12 09:45:11 51°15.671 2°37.685 -999 3.563052 34.146968 24.332255
2006-04-12 09:46:10 51°15.521 2°37.81 -999 3.559531 34.117486 24.365965
2006-04-12 09:47:11 51°15.366 2°37.946 -999 3.558599 34.091478 24.433383
2006-04-12 09:48:11 51°15.21 2°38.08 -999 3.554147 34.070805 24.534512
2006-04-12 09:49:11 51°15.05 2°38.211 -999 3.553008 34.049741 24.568221
2006-04-12 09:50:11 51°14.891 2°38.337 -999 3.553318 34.057513 24.669349
2006-04-12 09:51:11 51°14.731 2°38.464 -999 3.554561 34.056481 24.770477
2006-04-12 09:52:11 51°14.569 2°38.59 -999 3.5528 33.992331 24.770477
2006-04-12 09:53:11 51°14.407 2°38.714 -999 3.554871 34.004585 24.703059
2006-04-12 09:54:11 51°14.241 2°38.826 -999 3.557356 34.027464 24.433383
2006-04-12 09:55:10 51°14.079 2°38.941 -999 3.566262 34.106166 24.163708
2006-04-12 09:56:11 51°13.904 2°38.992 -999 3.573304 34.181075 23.995161
2006-04-12 09:57:11 51°13.735 2°38.94 -999 3.576514 34.226858 23.826614
2006-04-12 09:58:11 51°13.579 2°38.849 -999 3.586249 34.355646 23.624358
2006-04-12 09:59:11 51°13.431 2°38.746 -999 3.590392 34.436733 23.624358
2006-04-12 10:00:11 51°13.285 2°38.644 -999 3.590392 34.452976 23.624358
2006-04-12 10:01:11 51°13.141 2°38.542 -999 3.590496 34.453178 23.52323
2006-04-12 10:02:11 51°12.998 2°38.439 -999 3.590082 34.471338 23.422101
2006-04-12 10:03:11 51°12.853 2°38.339 -999 3.589461 34.518109 23.320973
2006-04-12 10:04:11 51°12.711 2°38.232 -999 3.585422 34.477618 23.219845
2006-04-12 10:05:11 51°12.567 2°38.126 -999 3.588218 34.465887 23.152426
2006-04-12 10:06:11 51°12.423 2°38.02 -999 3.581383 34.371218 23.118717
2006-04-12 10:07:11 51°12.279 2°37.912 -999 3.584904 34.401597 23.152426
2006-04-12 10:08:11 51°12.135 2°37.81 -999 3.584075 34.388247 23.118717
2006-04-12 10:09:11 51°11.994 2°37.708 -999 3.58335 34.398538 23.253554
2006-04-12 10:10:11 51°11.853 2°37.604 -999 3.583661 34.394641 23.287264
2006-04-12 10:11:11 51°11.712 2°37.501 -999 3.584593 34.39107 23.186136
2006-04-12 10:12:11 51°11.572 2°37.401 -999 3.585836 34.411548 23.186136
2006-04-12 10:13:11 51°11.434 2°37.302 -999 3.586561 34.420189 23.152426
2006-04-12 10:14:11 51°11.295 2°37.203 -999 3.587596 34.442079 23.118717
2006-04-12 10:15:11 51°11.153 2°37.113 -999 3.588425 34.462675 23.051298
2006-04-12 10:16:11 51°11.009 2°37.03 -999 3.589771 34.490631 22.983879
2006-04-12 10:17:11 51°10.865 2°36.946 -999 3.589254 34.493242 22.983879
2006-04-12 10:18:11 51°10.724 2°36.862 -999 3.589668 34.504011 22.983879
2006-04-12 10:19:11 51°10.581 2°36.783 -999 3.58915 34.50844 23.085007
2006-04-12 10:20:11 51°10.435 2°36.721 -999 3.588529 34.513577 23.152426
2006-04-12 10:21:11 51°10.281 2°36.784 -999 3.586872 34.515797 23.186136
2006-04-12 10:22:11 51°10.182 2°37.014 -999 3.58563 34.504307 22.983879
2006-04-12 10:23:11 51°10.183 2°37.314 -999 3.586354 34.493026 22.882751
2006-04-12 10:24:11 51°10.23 2°37.615 -999 3.587804 34.480457 22.849042
2006-04-12 10:25:11 51°10.288 2°37.913 -999 3.589046 34.478358 22.815332
2006-04-12 10:26:11 51°10.338 2°38.216 -999 3.591739 34.484519 22.815332
2006-04-12 10:27:11 51°10.389 2°38.519 -999 3.591739 34.461028 22.815332
2006-04-12 10:28:11 51°10.44 2°38.823 -999 3.592153 34.448303 22.815332
2006-04-12 10:29:11 51°10.491 2°39.129 -999 3.591945 34.437076 22.849042
2006-04-12 10:30:11 51°10.541 2°39.433 -999 3.591842 34.440479 22.882751
2006-04-12 10:31:11 51°10.592 2°39.736 -999 3.590703 34.432834 22.882751
2006-04-12 10:32:11 51°10.643 2°40.037 -999 3.591324 34.430448 22.849042
2006-04-12 10:33:11 51°10.698 2°40.335 -999 3.591634 34.415745 22.882751
2006-04-12 10:34:11 51°10.751 2°40.634 -999 3.59122 34.422135 22.882751
2006-04-12 10:35:11 51°10.797 2°40.884 -999 3.592152 34.417663 22.882751
2006-04-12 10:36:11 51°10.836 2°41.102 -999 3.58946 34.390762 22.95017
2006-04-12 10:37:11 51°10.87 2°41.288 -999 3.58832 34.37772 23.085007
2006-04-12 10:38:11 51°10.893 2°41.468 -999 3.587492 34.367092 23.152426
2006-04-12 10:39:11 51°10.912 2°41.618 -999 3.58832 34.383117 23.219845
2006-04-12 10:40:11 51°10.922 2°41.698 -999 3.586974 34.348098 23.152426
2006-04-12 10:41:11 51°10.929 2°41.771 -999 3.584282 34.342762 23.826614
2006-04-12 10:42:11 51°10.952 2°41.853 -999 3.588528 34.383526 23.388392
2006-04-12 10:43:11 51°10.977 2°41.918 -999 3.584074 34.341453 23.691777
2006-04-12 10:44:11 51°11.006 2°41.974 -999 3.583246 34.341609 23.792905
2006-04-12 10:45:11 51°11.044 2°42.018 -999 3.583971 34.343045 23.792905
2006-04-12 10:46:11 51°11.082 2°42.042 -999 3.584592 34.349669 23.759195
2006-04-12 10:47:11 51°11.111 2°42.044 -999 3.585317 34.357397 23.590648
2006-04-12 10:48:11 51°11.129 2°42.022 -999 3.585524 34.360504 23.590648
2006-04-12 10:49:11 51°11.119 2°42.008 -999 3.587388 34.368686 23.422101
2006-04-12 10:50:11 51°11.084 2°42.029 -999 3.587492 34.372487 23.556939
2006-04-12 10:51:11 51°11.052 2°42.104 -999 3.587285 34.367582 23.691777
2006-04-12 10:52:11 51°11.037 2°42.187 -999 3.585524 34.35511 23.725486
2006-04-12 10:53:11 51°11.025 2°42.275 -999 3.585214 34.350001 23.860324
2006-04-12 10:54:11 51°11.046 2°42.384 -999 3.584178 34.337167 23.826614
2006-04-12 10:55:11 51°11.1 2°42.441 -999 3.584903 34.337706 23.725486
2006-04-12 10:56:11 51°11.142 2°42.427 -999 3.590185 34.401189 23.792905
2006-04-12 10:57:11 51°11.164 2°42.411 -999 3.585006 34.349591 23.691777
2006-04-12 10:58:11 51°11.173 2°42.431 -999 3.58511 34.358785 23.792905
2006-04-12 10:59:11 51°11.176 2°42.474 -999 3.584799 34.355473 23.927742
2006-04-12 11:00:11 51°11.18 2°42.525 -999 3.591945 34.425361 23.961452
2006-04-12 11:01:11 51°11.17 2°42.572 -999 3.586042 34.35973 23.927742
2006-04-12 11:02:11 51°11.107 2°42.699 -999 3.585524 34.349717 24.096289
2006-04-12 11:03:11 51°11.116 2°42.986 -999 3.586145 34.332989 23.860324
2006-04-12 11:04:11 51°11.155 2°43.319 -999 3.586249 34.330502 23.658067
2006-04-12 11:05:11 51°11.198 2°43.659 -999 3.591013 34.370458 23.52323
2006-04-12 11:06:11 51°11.244 2°44.025 -999 3.586663 34.321458 23.691777
2006-04-12 11:07:11 51°11.291 2°44.411 -999 3.587491 34.320414 23.48952
2006-04-12 11:08:11 51°11.337 2°44.798 -999 3.58863 34.312823 23.219845
2006-04-12 11:09:11 51°11.389 2°45.184 -999 3.590597 34.261328 22.95017
2006-04-12 11:10:11 51°11.449 2°45.566 -999 3.588007 34.114835 22.882751
2006-04-12 11:11:11 51°11.503 2°45.921 -999 3.579203 33.971534 23.017589
2006-04-12 11:12:11 51°11.557 2°46.268 -999 3.576718 33.947936 23.253554
2006-04-12 11:13:11 51°11.609 2°46.614 -999 3.580964 33.987479 23.085007
2006-04-12 11:14:11 51°11.664 2°46.96 -999 3.574025 33.89494 23.219845
2006-04-12 11:15:11 51°11.72 2°47.306 -999 3.567812 33.838172 23.624358
2006-04-12 11:16:11 51°11.791 2°47.642 -999 3.563773 33.828853 24.972734
2006-04-12 11:17:11 51°11.88 2°47.961 -999 3.554764 33.775783 26.658204
2006-04-12 11:18:11 51°11.982 2°48.27 -999 3.548137 33.711027 27.062717
2006-04-12 11:19:11 51°12.083 2°48.587 -999 3.54648 33.679544 25.950306
2006-04-12 11:20:11 51°12.194 2°48.899 -999 3.552278 33.634366 24.399674
2006-04-12 11:21:11 51°12.306 2°49.209 -999 3.552795 33.625042 24.433383
2006-04-12 11:22:11 51°12.421 2°49.519 -999 3.550828 33.586988 24.365965
2006-04-12 11:23:11 51°12.54 2°49.826 -999 3.536641 33.436127 24.63564
2006-04-12 11:24:11 51°12.666 2°50.125 -999 3.527633 33.378529 25.377247
2006-04-12 11:25:11 51°12.793 2°50.422 -999 3.527012 33.407399 25.74805
2006-04-12 11:26:11 51°12.92 2°50.716 -999 3.537263 33.516208 25.377247
2006-04-12 11:27:11 51°13.041 2°51.015 -999 3.535917 33.518512 25.512084
2006-04-12 11:28:11 51°13.167 2°51.309 -999 3.519556 33.309967 25.680631
2006-04-12 11:29:11 51°13.294 2°51.602 -999 3.505992 33.161345 25.781759
2006-04-12 11:30:11 51°13.421 2°51.897 -999 3.497397 33.061645 25.916597
2006-04-12 11:31:11 51°13.537 2°52.17 -999 3.49688 33.057062 25.984016
2006-04-12 11:32:11 51°13.636 2°52.41 -999 3.49512 33.059083 26.017725
2006-04-12 11:33:11 51°13.734 2°52.644 -999 3.491081 32.969764 25.916597
2006-04-12 11:34:11 51°13.832 2°52.878 -999 3.485179 32.890875 26.051435
2006-04-12 11:35:11 51°13.918 2°53.087 -999 3.478138 32.792545 26.219982
2006-04-12 11:36:11 51°13.98 2°53.252 -999 3.47379 32.775747 26.354819
2006-04-12 11:37:11 51°14.031 2°53.379 -999 3.470994 32.700047 26.2874
2006-04-12 11:38:11 51°14.074 2°53.482 -999 3.472133 32.692589 26.32111
2006-04-12 11:39:11 51°14.113 2°53.574 -999 3.473893 32.702574 26.354819
2006-04-12 11:40:11 51°14.147 2°53.66 -999 3.476585 32.729034 26.2874
2006-04-12 11:41:11 51°14.178 2°53.741 -999 3.480001 32.755485 26.253691
2006-04-12 11:42:11 51°14.207 2°53.817 -999 3.483418 32.801335 26.2874
2006-04-12 11:43:11 51°14.235 2°53.888 -999 3.484868 32.850323 26.489657
2006-04-12 11:44:11 51°14.272 2°53.971 -999 3.485696 32.842915 26.354819
2006-04-12 11:45:11 51°14.352 2°54.143 -999 3.488699 32.854032 26.219982
2006-04-12 11:46:11 51°14.407 2°54.454 -999 3.484558 32.917492 28.950443
2006-04-12 11:47:11 51°14.422 2°54.818 -999 3.472135 32.856765 28.309965
2006-04-12 11:48:11 51°14.347 2°55.119 -999 3.454845 32.698829 28.242546
2006-04-12 11:49:11 51°14.256 2°55.274 -999 3.440143 32.514897 39.26552
2006-04-12 11:50:11 51°14.176 2°55.38 -999 3.440247 32.515141 38.72617
2006-04-12 11:51:11 51°14.087 2°55.451 -999 3.440143 32.510689 37.883435
2006-04-12 11:52:11 51°14.007 2°55.507 -999 3.440246 32.491594 37.411503
2006-04-12 11:53:11 51°13.931 2°55.561 -999 3.440971 32.481552 37.141828
2006-04-12 11:54:11 51°13.853 2°55.618 -999 3.442627 32.48128 37.00699
2006-04-12 11:55:11 51°13.78 2°55.685 -999 3.445112 32.482975 36.872153
2006-04-12 11:56:11 51°13.721 2°55.774 -999 3.447907 32.481219 36.669896
2006-04-12 11:57:11 51°13.673 2°55.871 -999 3.451012 32.478536 36.46764
2006-04-12 11:58:10 51°13.641 2°55.941 -999 3.454221 32.490319 36.197965
2006-04-12 11:59:11 51°13.621 2°56.002 -999 3.457327 32.495999 35.89458
2006-04-12 12:00:14 51°13.609 2°56.059 -999 3.460536 32.499417 35.557486
2006-04-12 12:01:14 51°13.602 2°56.095 -999 3.463745 32.508675 35.186683
2006-04-12 12:02:15 51°13.601 2°56.099 -999 3.465505 32.506164 34.950717